Portada
METAR-TAF:

METAR-TAF

Aeroports :

Aeroport Internacional Elefthérios Venizelos

Atenes, Grècia

latitud: 37-56N, longitud: 023-56E, altitud: 94 m

Observació

L'informe es va fer fa 36 minuts, a les 14:50 UTC
Vent 6 kt del Est
Temperatura 14°C
Humitat 58%
Pressió 1019 hPa
Visibilitat 10 km o més
sense núvols per sota de 1500 mi sense presència de cumulonimbus.

METAR: LGAV 181450Z 10006KT CAVOK 14/06 Q1019 NOSIG

Hora: 17:26 (15:26 UTC)

Pronòstic

L'informe es va fer fa 4 hores i 26 minuts, a les 11:00 UTC
Pronòstic vàlid del 18 a les 12 UTC al 19 a les 12 UTC
Vent 8 kt del Nord
Visibilitat 10 km o més
Escasses núvols a una alçada de 2500 ft

TAF: LGAV 181100Z 1812/1912 36008KT 9999 FEW025

Observacions i pronòstics meteorològics de més de 4000 aeroports (METAR i TAF).

Les estacions disponibles són els punts grocs i vermells al mapa.

Posi el ratolí al punt desitjat per veure el nom de l'estació.

Feu clic per veure les observacions i els pronòstics meteorològics.

Per canviar el mapa: feu clic els botons verds amb una creu de color negre per apropar; al botó verd amb un guió per allunyar la imatge; o en les fletxes verdes per a mapes adjacents.


METAR-TAF: